sensor_id;sensor_type;location;lat;lon;timestamp;temperature;humidity
5466;DHT22;2755;50.728;7.108;2023-05-10T00:04:20;12.60;99.90
5466;DHT22;2755;50.728;7.108;2023-05-10T00:06:46;12.80;99.90
5466;DHT22;2755;50.728;7.108;2023-05-10T00:09:12;12.60;99.90
5466;DHT22;2755;50.728;7.108;2023-05-10T00:11:37;12.60;99.90
5466;DHT22;2755;50.728;7.108;2023-05-10T00:14:03;12.50;99.90
5466;DHT22;2755;50.728;7.108;2023-05-10T00:16:29;12.60;99.90
5466;DHT22;2755;50.728;7.108;2023-05-10T00:18:54;12.40;99.90
5466;DHT22;2755;50.728;7.108;2023-05-10T00:23:46;12.60;99.90
5466;DHT22;2755;50.728;7.108;2023-05-10T00:26:11;12.00;99.90
5466;DHT22;2755;50.728;7.108;2023-05-10T00:28:37;12.70;99.90
5466;DHT22;2755;50.728;7.108;2023-05-10T00:31:03;13.60;99.90
5466;DHT22;2755;50.728;7.108;2023-05-10T00:33:28;12.60;99.90
5466;DHT22;2755;50.728;7.108;2023-05-10T00:38:20;12.50;99.90
5466;DHT22;2755;50.728;7.108;2023-05-10T00:40:45;11.90;99.90
5466;DHT22;2755;50.728;7.108;2023-05-10T00:43:11;12.40;99.90
5466;DHT22;2755;50.728;7.108;2023-05-10T00:45:37;12.70;99.90
5466;DHT22;2755;50.728;7.108;2023-05-10T00:48:03;12.90;99.90
5466;DHT22;2755;50.728;7.108;2023-05-10T00:50:31;12.60;99.90
5466;DHT22;2755;50.728;7.108;2023-05-10T00:52:58;13.00;99.90
5466;DHT22;2755;50.728;7.108;2023-05-10T00:55:24;12.70;99.90
5466;DHT22;2755;50.728;7.108;2023-05-10T00:57:50;12.70;99.90
5466;DHT22;2755;50.728;7.108;2023-05-10T01:00:16;12.50;99.90
5466;DHT22;2755;50.728;7.108;2023-05-10T01:02:44;12.50;99.90
5466;DHT22;2755;50.728;7.108;2023-05-10T01:05:10;12.70;99.90
5466;DHT22;2755;50.728;7.108;2023-05-10T01:07:36;13.00;99.90
5466;DHT22;2755;50.728;7.108;2023-05-10T01:10:02;12.80;99.90
5466;DHT22;2755;50.728;7.108;2023-05-10T01:12:28;12.80;99.90
5466;DHT22;2755;50.728;7.108;2023-05-10T01:14:54;11.90;99.90
5466;DHT22;2755;50.728;7.108;2023-05-10T01:17:20;13.10;99.90
5466;DHT22;2755;50.728;7.108;2023-05-10T01:19:46;12.50;99.90
5466;DHT22;2755;50.728;7.108;2023-05-10T01:33:15;12.70;99.90
5466;DHT22;2755;50.728;7.108;2023-05-10T01:36:04;12.40;99.90
5466;DHT22;2755;50.728;7.108;2023-05-10T01:38:53;12.40;99.90
5466;DHT22;2755;50.728;7.108;2023-05-10T01:44:43;12.60;99.90
5466;DHT22;2755;50.728;7.108;2023-05-10T01:47:55;12.40;99.90
5466;DHT22;2755;50.728;7.108;2023-05-10T01:50:03;14.10;99.90
5466;DHT22;2755;50.728;7.108;2023-05-10T01:52:42;12.50;99.90
5466;DHT22;2755;50.728;7.108;2023-05-10T01:55:13;12.50;99.90
5466;DHT22;2755;50.728;7.108;2023-05-10T01:57:43;12.50;99.90
5466;DHT22;2755;50.728;7.108;2023-05-10T02:00:10;12.60;99.90
5466;DHT22;2755;50.728;7.108;2023-05-10T02:02:37;12.70;99.90
5466;DHT22;2755;50.728;7.108;2023-05-10T02:05:06;11.90;99.90
5466;DHT22;2755;50.728;7.108;2023-05-10T02:07:35;12.40;99.90
5466;DHT22;2755;50.728;7.108;2023-05-10T02:10:03;12.40;99.90
5466;DHT22;2755;50.728;7.108;2023-05-10T02:12:29;12.60;99.90
5466;DHT22;2755;50.728;7.108;2023-05-10T02:14:58;12.60;99.90
5466;DHT22;2755;50.728;7.108;2023-05-10T02:17:25;12.70;99.90
5466;DHT22;2755;50.728;7.108;2023-05-10T02:19:51;12.40;99.90
5466;DHT22;2755;50.728;7.108;2023-05-10T02:22:18;12.40;99.90
5466;DHT22;2755;50.728;7.108;2023-05-10T02:24:45;12.40;99.90
5466;DHT22;2755;50.728;7.108;2023-05-10T02:27:12;12.50;99.90
5466;DHT22;2755;50.728;7.108;2023-05-10T02:34:31;12.20;99.90
5466;DHT22;2755;50.728;7.108;2023-05-10T02:36:58;12.10;99.90
5466;DHT22;2755;50.728;7.108;2023-05-10T02:39:24;12.80;99.90
5466;DHT22;2755;50.728;7.108;2023-05-10T02:41:52;12.50;99.90
5466;DHT22;2755;50.728;7.108;2023-05-10T02:44:19;12.40;99.90
5466;DHT22;2755;50.728;7.108;2023-05-10T02:46:46;12.10;99.90
5466;DHT22;2755;50.728;7.108;2023-05-10T02:49:12;12.60;99.90
5466;DHT22;2755;50.728;7.108;2023-05-10T02:51:45;11.90;99.90
5466;DHT22;2755;50.728;7.108;2023-05-10T02:54:18;12.50;99.90
5466;DHT22;2755;50.728;7.108;2023-05-10T02:56:53;12.40;99.90
5466;DHT22;2755;50.728;7.108;2023-05-10T02:59:21;12.20;99.90
5466;DHT22;2755;50.728;7.108;2023-05-10T03:01:47;12.70;99.90
5466;DHT22;2755;50.728;7.108;2023-05-10T03:04:13;12.70;99.90
5466;DHT22;2755;50.728;7.108;2023-05-10T03:06:39;12.30;99.90
5466;DHT22;2755;50.728;7.108;2023-05-10T03:09:05;12.00;99.90
5466;DHT22;2755;50.728;7.108;2023-05-10T03:14:57;13.00;99.90
5466;DHT22;2755;50.728;7.108;2023-05-10T03:17:41;11.60;99.90
5466;DHT22;2755;50.728;7.108;2023-05-10T03:20:10;12.20;99.90
5466;DHT22;2755;50.728;7.108;2023-05-10T03:22:42;12.50;99.90
5466;DHT22;2755;50.728;7.108;2023-05-10T03:25:11;12.40;99.90
5466;DHT22;2755;50.728;7.108;2023-05-10T03:27:40;12.50;99.90
5466;DHT22;2755;50.728;7.108;2023-05-10T03:30:08;12.20;99.90
5466;DHT22;2755;50.728;7.108;2023-05-10T03:32:35;12.60;99.90
5466;DHT22;2755;50.728;7.108;2023-05-10T03:35:09;12.20;99.90
5466;DHT22;2755;50.728;7.108;2023-05-10T03:37:35;12.50;99.90
5466;DHT22;2755;50.728;7.108;2023-05-10T03:40:01;12.90;99.90
5466;DHT22;2755;50.728;7.108;2023-05-10T03:42:27;12.40;99.90
5466;DHT22;2755;50.728;7.108;2023-05-10T03:47:19;12.60;99.90
5466;DHT22;2755;50.728;7.108;2023-05-10T03:49:45;12.70;99.90
5466;DHT22;2755;50.728;7.108;2023-05-10T03:52:11;11.80;99.90
5466;DHT22;2755;50.728;7.108;2023-05-10T03:54:36;12.60;99.90
5466;DHT22;2755;50.728;7.108;2023-05-10T03:57:02;12.80;99.90
5466;DHT22;2755;50.728;7.108;2023-05-10T03:59:28;12.30;99.90
5466;DHT22;2755;50.728;7.108;2023-05-10T04:01:53;12.70;99.90
5466;DHT22;2755;50.728;7.108;2023-05-10T04:04:19;12.60;99.90
5466;DHT22;2755;50.728;7.108;2023-05-10T04:06:46;12.30;99.90
5466;DHT22;2755;50.728;7.108;2023-05-10T04:09:11;12.30;99.90
5466;DHT22;2755;50.728;7.108;2023-05-10T04:11:37;12.60;99.90
5466;DHT22;2755;50.728;7.108;2023-05-10T04:14:03;13.20;99.90
5466;DHT22;2755;50.728;7.108;2023-05-10T04:16:28;12.60;99.90
5466;DHT22;2755;50.728;7.108;2023-05-10T04:18:54;12.40;99.90
5466;DHT22;2755;50.728;7.108;2023-05-10T04:21:19;12.90;99.90
5466;DHT22;2755;50.728;7.108;2023-05-10T04:23:45;12.90;99.90
5466;DHT22;2755;50.728;7.108;2023-05-10T04:26:11;12.60;99.90
5466;DHT22;2755;50.728;7.108;2023-05-10T04:28:36;12.60;99.90
5466;DHT22;2755;50.728;7.108;2023-05-10T04:31:06;12.10;99.90
5466;DHT22;2755;50.728;7.108;2023-05-10T04:35:59;13.30;99.90
5466;DHT22;2755;50.728;7.108;2023-05-10T04:38:25;12.20;99.90
5466;DHT22;2755;50.728;7.108;2023-05-10T04:40:51;12.90;99.90
5466;DHT22;2755;50.728;7.108;2023-05-10T04:43:16;12.90;99.90
5466;DHT22;2755;50.728;7.108;2023-05-10T04:45:42;12.90;99.90
5466;DHT22;2755;50.728;7.108;2023-05-10T04:48:07;12.70;99.90
5466;DHT22;2755;50.728;7.108;2023-05-10T04:50:33;12.80;99.90
5466;DHT22;2755;50.728;7.108;2023-05-10T04:52:59;12.60;99.90
5466;DHT22;2755;50.728;7.108;2023-05-10T04:55:24;12.60;99.90
5466;DHT22;2755;50.728;7.108;2023-05-10T04:57:50;12.90;99.90
5466;DHT22;2755;50.728;7.108;2023-05-10T05:02:43;13.00;99.90
5466;DHT22;2755;50.728;7.108;2023-05-10T05:05:09;12.20;99.90
5466;DHT22;2755;50.728;7.108;2023-05-10T05:07:35;12.90;99.90
5466;DHT22;2755;50.728;7.108;2023-05-10T05:12:27;13.00;99.90
5466;DHT22;2755;50.728;7.108;2023-05-10T05:14:52;12.90;99.90
5466;DHT22;2755;50.728;7.108;2023-05-10T05:17:18;13.10;99.90
5466;DHT22;2755;50.728;7.108;2023-05-10T05:22:09;13.20;99.90
5466;DHT22;2755;50.728;7.108;2023-05-10T05:24:35;13.80;99.90
5466;DHT22;2755;50.728;7.108;2023-05-10T05:27:03;13.00;99.90
5466;DHT22;2755;50.728;7.108;2023-05-10T05:29:29;13.60;99.90
5466;DHT22;2755;50.728;7.108;2023-05-10T05:31:55;13.00;99.90
5466;DHT22;2755;50.728;7.108;2023-05-10T05:34:20;13.10;99.90
5466;DHT22;2755;50.728;7.108;2023-05-10T05:36:47;13.40;99.90
5466;DHT22;2755;50.728;7.108;2023-05-10T05:44:04;13.70;99.90
5466;DHT22;2755;50.728;7.108;2023-05-10T05:46:30;14.10;99.90
5466;DHT22;2755;50.728;7.108;2023-05-10T05:51:22;13.50;99.90
5466;DHT22;2755;50.728;7.108;2023-05-10T05:56:13;13.80;99.90
5466;DHT22;2755;50.728;7.108;2023-05-10T06:01:05;13.70;99.90
5466;DHT22;2755;50.728;7.108;2023-05-10T06:05:57;14.00;99.90
5466;DHT22;2755;50.728;7.108;2023-05-10T06:08:23;14.50;99.90
5466;DHT22;2755;50.728;7.108;2023-05-10T06:10:48;14.60;99.90
5466;DHT22;2755;50.728;7.108;2023-05-10T06:15:40;14.70;99.90
5466;DHT22;2755;50.728;7.108;2023-05-10T06:18:06;14.40;99.90
5466;DHT22;2755;50.728;7.108;2023-05-10T06:22:58;14.80;99.90
5466;DHT22;2755;50.728;7.108;2023-05-10T06:25:24;14.50;99.90
5466;DHT22;2755;50.728;7.108;2023-05-10T06:27:49;14.50;99.90
5466;DHT22;2755;50.728;7.108;2023-05-10T06:32:41;14.70;99.90
5466;DHT22;2755;50.728;7.108;2023-05-10T06:37:35;14.40;99.90
5466;DHT22;2755;50.728;7.108;2023-05-10T06:44:53;14.00;99.90
5466;DHT22;2755;50.728;7.108;2023-05-10T06:47:19;14.00;99.90
5466;DHT22;2755;50.728;7.108;2023-05-10T07:11:41;13.50;99.90
5466;DHT22;2755;50.728;7.108;2023-05-10T07:18:58;13.80;99.90
5466;DHT22;2755;50.728;7.108;2023-05-10T07:21:24;13.60;99.90
5466;DHT22;2755;50.728;7.108;2023-05-10T07:43:17;14.10;99.90
5466;DHT22;2755;50.728;7.108;2023-05-10T08:00:19;14.00;99.90
5466;DHT22;2755;50.728;7.108;2023-05-10T08:41:46;15.20;99.90
5466;DHT22;2755;50.728;7.108;2023-05-10T08:46:41;15.00;99.90
5466;DHT22;2755;50.728;7.108;2023-05-10T08:54:06;14.90;99.90
5466;DHT22;2755;50.728;7.108;2023-05-10T09:01:25;14.80;99.90
5466;DHT22;2755;50.728;7.108;2023-05-10T09:43:17;14.90;99.90
5466;DHT22;2755;50.728;7.108;2023-05-10T09:53:02;15.70;99.90
5466;DHT22;2755;50.728;7.108;2023-05-10T09:55:46;15.50;99.90
5466;DHT22;2755;50.728;7.108;2023-05-10T10:03:15;15.90;99.90
5466;DHT22;2755;50.728;7.108;2023-05-10T10:08:11;16.20;99.90
5466;DHT22;2755;50.728;7.108;2023-05-10T10:25:19;16.00;99.90
5466;DHT22;2755;50.728;7.108;2023-05-10T10:30:46;15.60;99.90
5466;DHT22;2755;50.728;7.108;2023-05-10T10:41:38;15.90;99.90
5466;DHT22;2755;50.728;7.108;2023-05-10T11:08:12;16.50;99.90
5466;DHT22;2755;50.728;7.108;2023-05-10T11:25:27;18.80;63.00
5466;DHT22;2755;50.728;7.108;2023-05-10T11:35:12;19.00;59.10
5466;DHT22;2755;50.728;7.108;2023-05-10T11:42:39;21.00;43.70
5466;DHT22;2755;50.728;7.108;2023-05-10T11:45:05;21.50;22.90
5466;DHT22;2755;50.728;7.108;2023-05-10T12:12:02;19.80;21.60
5466;DHT22;2755;50.728;7.108;2023-05-10T12:29:19;18.80;27.10
5466;DHT22;2755;50.728;7.108;2023-05-10T12:31:56;18.80;29.20
5466;DHT22;2755;50.728;7.108;2023-05-10T12:34:35;18.70;30.50
5466;DHT22;2755;50.728;7.108;2023-05-10T12:39:44;18.70;30.50
5466;DHT22;2755;50.728;7.108;2023-05-10T13:18:41;16.00;99.90
5466;DHT22;2755;50.728;7.108;2023-05-10T13:23:33;16.10;99.90
5466;DHT22;2755;50.728;7.108;2023-05-10T13:40:36;17.00;99.90
5466;DHT22;2755;50.728;7.108;2023-05-10T13:45:28;16.00;95.10
5466;DHT22;2755;50.728;7.108;2023-05-10T13:47:53;15.70;98.70
5466;DHT22;2755;50.728;7.108;2023-05-10T13:52:45;13.80;99.90
5466;DHT22;2755;50.728;7.108;2023-05-10T13:57:38;14.60;99.90
5466;DHT22;2755;50.728;7.108;2023-05-10T14:02:30;15.00;99.90
5466;DHT22;2755;50.728;7.108;2023-05-10T14:04:56;15.50;99.90
5466;DHT22;2755;50.728;7.108;2023-05-10T14:07:22;14.20;99.90
5466;DHT22;2755;50.728;7.108;2023-05-10T14:12:14;14.30;99.90
5466;DHT22;2755;50.728;7.108;2023-05-10T14:17:08;14.10;99.90
5466;DHT22;2755;50.728;7.108;2023-05-10T14:22:00;14.20;99.90
5466;DHT22;2755;50.728;7.108;2023-05-10T14:24:29;14.00;99.90
5466;DHT22;2755;50.728;7.108;2023-05-10T14:29:21;14.10;99.90
5466;DHT22;2755;50.728;7.108;2023-05-10T14:31:47;14.10;99.90
5466;DHT22;2755;50.728;7.108;2023-05-10T14:34:13;14.10;99.90
5466;DHT22;2755;50.728;7.108;2023-05-10T14:36:38;14.70;99.90
5466;DHT22;2755;50.728;7.108;2023-05-10T14:41:31;14.10;99.90
5466;DHT22;2755;50.728;7.108;2023-05-10T14:46:24;13.80;99.90
5466;DHT22;2755;50.728;7.108;2023-05-10T14:48:49;14.70;99.90
5466;DHT22;2755;50.728;7.108;2023-05-10T14:51:15;14.60;99.90
5466;DHT22;2755;50.728;7.108;2023-05-10T14:53:41;15.10;99.90
5466;DHT22;2755;50.728;7.108;2023-05-10T14:56:06;15.50;99.90
5466;DHT22;2755;50.728;7.108;2023-05-10T14:58:32;14.60;99.90
5466;DHT22;2755;50.728;7.108;2023-05-10T15:00:58;15.10;99.90
5466;DHT22;2755;50.728;7.108;2023-05-10T15:03:36;15.50;99.90
5466;DHT22;2755;50.728;7.108;2023-05-10T15:06:04;15.70;99.90
5466;DHT22;2755;50.728;7.108;2023-05-10T15:10:55;14.90;99.90
5466;DHT22;2755;50.728;7.108;2023-05-10T15:13:21;15.00;99.90
5466;DHT22;2755;50.728;7.108;2023-05-10T15:25:31;14.10;99.90
5466;DHT22;2755;50.728;7.108;2023-05-10T15:32:51;14.70;99.90
5466;DHT22;2755;50.728;7.108;2023-05-10T15:35:17;14.80;99.90
5466;DHT22;2755;50.728;7.108;2023-05-10T15:37:43;15.10;99.90
5466;DHT22;2755;50.728;7.108;2023-05-10T15:40:09;14.40;99.90
5466;DHT22;2755;50.728;7.108;2023-05-10T15:42:35;14.50;99.90
5466;DHT22;2755;50.728;7.108;2023-05-10T15:45:01;14.60;99.90
5466;DHT22;2755;50.728;7.108;2023-05-10T15:47:27;14.00;99.90
5466;DHT22;2755;50.728;7.108;2023-05-10T15:49:55;14.70;99.90
5466;DHT22;2755;50.728;7.108;2023-05-10T15:52:24;14.00;99.90
5466;DHT22;2755;50.728;7.108;2023-05-10T15:54:50;14.40;99.90
5466;DHT22;2755;50.728;7.108;2023-05-10T15:59:42;15.00;99.90
5466;DHT22;2755;50.728;7.108;2023-05-10T16:02:08;13.90;99.90
5466;DHT22;2755;50.728;7.108;2023-05-10T16:04:35;14.80;99.90
5466;DHT22;2755;50.728;7.108;2023-05-10T16:07:02;14.90;99.90
5466;DHT22;2755;50.728;7.108;2023-05-10T16:09:28;15.70;99.90
5466;DHT22;2755;50.728;7.108;2023-05-10T16:16:47;14.60;99.90
5466;DHT22;2755;50.728;7.108;2023-05-10T16:21:40;15.20;99.90
5466;DHT22;2755;50.728;7.108;2023-05-10T16:24:05;15.00;99.90
5466;DHT22;2755;50.728;7.108;2023-05-10T16:26:31;14.60;99.90
5466;DHT22;2755;50.728;7.108;2023-05-10T16:28:57;15.00;99.90
5466;DHT22;2755;50.728;7.108;2023-05-10T16:31:23;14.90;99.90
5466;DHT22;2755;50.728;7.108;2023-05-10T16:33:49;14.90;99.90
5466;DHT22;2755;50.728;7.108;2023-05-10T16:41:06;15.00;99.90
5466;DHT22;2755;50.728;7.108;2023-05-10T16:43:32;15.00;99.90
5466;DHT22;2755;50.728;7.108;2023-05-10T16:45:57;15.00;99.90
5466;DHT22;2755;50.728;7.108;2023-05-10T16:48:23;14.60;99.90
5466;DHT22;2755;50.728;7.108;2023-05-10T16:53:15;15.20;99.90
5466;DHT22;2755;50.728;7.108;2023-05-10T16:55:41;14.90;99.90
5466;DHT22;2755;50.728;7.108;2023-05-10T17:00:32;15.10;99.90
5466;DHT22;2755;50.728;7.108;2023-05-10T17:02:58;14.20;99.90
5466;DHT22;2755;50.728;7.108;2023-05-10T17:07:50;14.50;99.90
5466;DHT22;2755;50.728;7.108;2023-05-10T17:12:42;14.50;99.90
5466;DHT22;2755;50.728;7.108;2023-05-10T17:15:08;14.80;99.90
5466;DHT22;2755;50.728;7.108;2023-05-10T17:17:34;14.70;99.90
5466;DHT22;2755;50.728;7.108;2023-05-10T17:19:59;14.50;99.90
5466;DHT22;2755;50.728;7.108;2023-05-10T17:24:51;14.70;99.90
5466;DHT22;2755;50.728;7.108;2023-05-10T17:29:42;14.10;99.90
5466;DHT22;2755;50.728;7.108;2023-05-10T17:34:35;13.70;99.90
5466;DHT22;2755;50.728;7.108;2023-05-10T17:37:01;14.30;99.90
5466;DHT22;2755;50.728;7.108;2023-05-10T17:39:26;14.30;99.90
5466;DHT22;2755;50.728;7.108;2023-05-10T17:41:52;14.40;99.90
5466;DHT22;2755;50.728;7.108;2023-05-10T17:44:18;14.30;99.90
5466;DHT22;2755;50.728;7.108;2023-05-10T17:51:36;14.30;99.90
5466;DHT22;2755;50.728;7.108;2023-05-10T17:54:02;13.50;99.90
5466;DHT22;2755;50.728;7.108;2023-05-10T17:56:27;13.80;99.90
5466;DHT22;2755;50.728;7.108;2023-05-10T17:58:56;13.60;99.90
5466;DHT22;2755;50.728;7.108;2023-05-10T18:06:16;14.20;99.90
5466;DHT22;2755;50.728;7.108;2023-05-10T18:20:51;14.00;99.90
5466;DHT22;2755;50.728;7.108;2023-05-10T18:23:21;14.20;99.90
5466;DHT22;2755;50.728;7.108;2023-05-10T18:25:47;14.40;99.90
5466;DHT22;2755;50.728;7.108;2023-05-10T18:28:13;14.20;99.90
5466;DHT22;2755;50.728;7.108;2023-05-10T18:30:39;14.00;99.90
5466;DHT22;2755;50.728;7.108;2023-05-10T18:33:06;14.60;99.90
5466;DHT22;2755;50.728;7.108;2023-05-10T18:35:32;14.20;99.90
5466;DHT22;2755;50.728;7.108;2023-05-10T18:40:26;14.30;99.90
5466;DHT22;2755;50.728;7.108;2023-05-10T18:42:52;13.50;99.90
5466;DHT22;2755;50.728;7.108;2023-05-10T18:45:18;13.90;99.90
5466;DHT22;2755;50.728;7.108;2023-05-10T18:50:10;14.00;99.90
5466;DHT22;2755;50.728;7.108;2023-05-10T18:57:28;13.90;99.90
5466;DHT22;2755;50.728;7.108;2023-05-10T19:04:46;14.90;99.90
5466;DHT22;2755;50.728;7.108;2023-05-10T19:09:37;13.30;99.90
5466;DHT22;2755;50.728;7.108;2023-05-10T19:12:03;13.20;99.90
5466;DHT22;2755;50.728;7.108;2023-05-10T19:16:55;13.30;99.90
5466;DHT22;2755;50.728;7.108;2023-05-10T19:21:46;13.30;99.90
5466;DHT22;2755;50.728;7.108;2023-05-10T19:24:12;13.10;99.90
5466;DHT22;2755;50.728;7.108;2023-05-10T19:26:38;12.90;99.90
5466;DHT22;2755;50.728;7.108;2023-05-10T19:33:57;13.60;99.90
5466;DHT22;2755;50.728;7.108;2023-05-10T19:36:24;12.70;99.90
5466;DHT22;2755;50.728;7.108;2023-05-10T19:38:49;13.80;99.90
5466;DHT22;2755;50.728;7.108;2023-05-10T19:41:15;13.40;99.90
5466;DHT22;2755;50.728;7.108;2023-05-10T19:46:07;13.20;99.90
5466;DHT22;2755;50.728;7.108;2023-05-10T19:48:34;13.30;99.90
5466;DHT22;2755;50.728;7.108;2023-05-10T19:51:04;13.10;99.90
5466;DHT22;2755;50.728;7.108;2023-05-10T19:53:30;12.10;99.90
5466;DHT22;2755;50.728;7.108;2023-05-10T19:56:05;13.30;99.90
5466;DHT22;2755;50.728;7.108;2023-05-10T20:00:58;12.90;99.90
5466;DHT22;2755;50.728;7.108;2023-05-10T20:03:24;12.90;99.90
5466;DHT22;2755;50.728;7.108;2023-05-10T20:05:49;12.80;99.90
5466;DHT22;2755;50.728;7.108;2023-05-10T20:08:15;12.00;99.90
5466;DHT22;2755;50.728;7.108;2023-05-10T20:13:07;12.40;99.90
5466;DHT22;2755;50.728;7.108;2023-05-10T20:15:32;12.90;99.90
5466;DHT22;2755;50.728;7.108;2023-05-10T20:17:58;12.60;99.90
5466;DHT22;2755;50.728;7.108;2023-05-10T20:20:24;12.50;99.90
5466;DHT22;2755;50.728;7.108;2023-05-10T20:25:17;12.60;99.90
5466;DHT22;2755;50.728;7.108;2023-05-10T20:27:43;12.90;99.90
5466;DHT22;2755;50.728;7.108;2023-05-10T20:32:35;12.70;99.90
5466;DHT22;2755;50.728;7.108;2023-05-10T20:37:27;12.50;99.90
5466;DHT22;2755;50.728;7.108;2023-05-10T20:39:54;11.70;99.90
5466;DHT22;2755;50.728;7.108;2023-05-10T20:42:20;12.30;99.90
5466;DHT22;2755;50.728;7.108;2023-05-10T20:44:46;12.50;99.90
5466;DHT22;2755;50.728;7.108;2023-05-10T20:47:13;12.70;99.90
5466;DHT22;2755;50.728;7.108;2023-05-10T20:49:39;12.70;99.90
5466;DHT22;2755;50.728;7.108;2023-05-10T20:54:31;12.20;99.90
5466;DHT22;2755;50.728;7.108;2023-05-10T20:56:56;13.00;99.90
5466;DHT22;2755;50.728;7.108;2023-05-10T20:59:22;12.40;99.90
5466;DHT22;2755;50.728;7.108;2023-05-10T21:01:47;12.20;99.90
5466;DHT22;2755;50.728;7.108;2023-05-10T21:06:41;12.50;99.90
5466;DHT22;2755;50.728;7.108;2023-05-10T21:09:07;12.60;99.90
5466;DHT22;2755;50.728;7.108;2023-05-10T21:11:33;12.60;99.90
5466;DHT22;2755;50.728;7.108;2023-05-10T21:16:26;12.50;99.90
5466;DHT22;2755;50.728;7.108;2023-05-10T21:18:52;12.40;99.90
5466;DHT22;2755;50.728;7.108;2023-05-10T21:23:47;12.30;99.90
5466;DHT22;2755;50.728;7.108;2023-05-10T21:26:13;12.80;99.90
5466;DHT22;2755;50.728;7.108;2023-05-10T21:28:38;12.10;99.90
5466;DHT22;2755;50.728;7.108;2023-05-10T21:35:58;12.20;99.90
5466;DHT22;2755;50.728;7.108;2023-05-10T21:38:25;12.50;99.90
5466;DHT22;2755;50.728;7.108;2023-05-10T21:40:51;12.10;99.90
5466;DHT22;2755;50.728;7.108;2023-05-10T21:43:19;12.50;99.90
5466;DHT22;2755;50.728;7.108;2023-05-10T21:45:45;12.60;99.90
5466;DHT22;2755;50.728;7.108;2023-05-10T21:48:11;12.30;99.90
5466;DHT22;2755;50.728;7.108;2023-05-10T21:50:37;12.50;99.90
5466;DHT22;2755;50.728;7.108;2023-05-10T21:55:29;11.80;99.90
5466;DHT22;2755;50.728;7.108;2023-05-10T21:57:55;12.30;99.90
5466;DHT22;2755;50.728;7.108;2023-05-10T22:00:22;12.30;99.90
5466;DHT22;2755;50.728;7.108;2023-05-10T22:02:47;12.30;99.90
5466;DHT22;2755;50.728;7.108;2023-05-10T22:05:13;12.20;99.90
5466;DHT22;2755;50.728;7.108;2023-05-10T22:07:39;12.50;99.90
5466;DHT22;2755;50.728;7.108;2023-05-10T22:10:05;12.30;99.90
5466;DHT22;2755;50.728;7.108;2023-05-10T22:12:31;11.60;99.90
5466;DHT22;2755;50.728;7.108;2023-05-10T22:14:57;12.10;99.90
5466;DHT22;2755;50.728;7.108;2023-05-10T22:17:22;12.30;99.90
5466;DHT22;2755;50.728;7.108;2023-05-10T22:19:48;12.50;99.90
5466;DHT22;2755;50.728;7.108;2023-05-10T22:24:40;12.20;99.90
5466;DHT22;2755;50.728;7.108;2023-05-10T22:27:06;12.30;99.90
5466;DHT22;2755;50.728;7.108;2023-05-10T22:31:57;12.70;99.90
5466;DHT22;2755;50.728;7.108;2023-05-10T22:34:23;10.70;99.90
5466;DHT22;2755;50.728;7.108;2023-05-10T22:36:49;12.30;99.90
5466;DHT22;2755;50.728;7.108;2023-05-10T22:39:15;12.20;99.90
5466;DHT22;2755;50.728;7.108;2023-05-10T22:41:41;12.10;99.90
5466;DHT22;2755;50.728;7.108;2023-05-10T22:44:07;12.10;99.90
5466;DHT22;2755;50.728;7.108;2023-05-10T22:46:34;12.20;99.90
5466;DHT22;2755;50.728;7.108;2023-05-10T22:51:27;12.00;99.90
5466;DHT22;2755;50.728;7.108;2023-05-10T22:53:52;11.90;99.90
5466;DHT22;2755;50.728;7.108;2023-05-10T22:58:46;11.30;99.90
5466;DHT22;2755;50.728;7.108;2023-05-10T23:01:12;12.20;99.90
5466;DHT22;2755;50.728;7.108;2023-05-10T23:03:38;11.70;99.90
5466;DHT22;2755;50.728;7.108;2023-05-10T23:06:03;11.50;99.90
5466;DHT22;2755;50.728;7.108;2023-05-10T23:08:29;11.90;99.90
5466;DHT22;2755;50.728;7.108;2023-05-10T23:13:21;11.80;99.90
5466;DHT22;2755;50.728;7.108;2023-05-10T23:15:47;11.80;99.90
5466;DHT22;2755;50.728;7.108;2023-05-10T23:18:12;12.00;99.90
5466;DHT22;2755;50.728;7.108;2023-05-10T23:20:40;11.30;99.90
5466;DHT22;2755;50.728;7.108;2023-05-10T23:23:09;11.20;99.90
5466;DHT22;2755;50.728;7.108;2023-05-10T23:25:36;11.50;99.90
5466;DHT22;2755;50.728;7.108;2023-05-10T23:28:02;11.10;99.90
5466;DHT22;2755;50.728;7.108;2023-05-10T23:30:29;11.40;99.90
5466;DHT22;2755;50.728;7.108;2023-05-10T23:32:56;11.50;99.90
5466;DHT22;2755;50.728;7.108;2023-05-10T23:35:21;11.20;99.90
5466;DHT22;2755;50.728;7.108;2023-05-10T23:40:14;11.10;99.90
5466;DHT22;2755;50.728;7.108;2023-05-10T23:42:40;11.30;99.90
5466;DHT22;2755;50.728;7.108;2023-05-10T23:49:57;11.50;99.90
5466;DHT22;2755;50.728;7.108;2023-05-10T23:52:23;11.40;99.90
5466;DHT22;2755;50.728;7.108;2023-05-10T23:54:52;11.60;99.90
5466;DHT22;2755;50.728;7.108;2023-05-10T23:57:18;11.50;99.90
5466;DHT22;2755;50.728;7.108;2023-05-10T23:59:44;11.30;99.90
